createdAt,value
2022-11-29T00:02:10.318Z,19.97
2022-11-29T00:05:12.857Z,19.50
2022-11-29T00:08:16.679Z,18.55
2022-11-29T00:11:39.899Z,19.25
2022-11-29T00:14:42.910Z,18.20
2022-11-29T00:17:45.551Z,18.47
2022-11-29T00:20:48.000Z,18.60
2022-11-29T00:23:51.840Z,18.08
2022-11-29T00:26:54.272Z,18.50
2022-11-29T00:29:56.722Z,18.10
2022-11-29T00:32:59.163Z,17.80
2022-11-29T00:36:01.646Z,19.20
2022-11-29T00:39:06.675Z,18.52
2022-11-29T00:42:09.105Z,16.95
2022-11-29T00:45:12.109Z,18.52
2022-11-29T00:48:14.511Z,16.97
2022-11-29T00:51:16.955Z,16.95
2022-11-29T00:54:20.737Z,17.13
2022-11-29T00:57:23.303Z,17.25
2022-11-29T01:00:25.731Z,15.98
2022-11-29T01:03:28.252Z,16.07
2022-11-29T01:06:30.816Z,15.98
2022-11-29T01:09:34.563Z,14.55
2022-11-29T01:12:38.138Z,14.25
2022-11-29T01:15:41.284Z,13.82
2022-11-29T01:18:44.398Z,12.90
2022-11-29T01:21:46.763Z,13.55
2022-11-29T01:24:50.655Z,14.48
2022-11-29T01:27:54.267Z,12.95
2022-11-29T01:30:57.061Z,13.13
2022-11-29T01:34:01.244Z,13.27
2022-11-29T01:37:03.696Z,13.57
2022-11-29T01:40:08.825Z,13.40
2022-11-29T01:43:16.203Z,12.68
2022-11-29T01:46:18.840Z,14.13
2022-11-29T01:49:27.141Z,14.03
2022-11-29T01:52:32.663Z,14.05
2022-11-29T01:55:40.559Z,13.48
2022-11-29T01:58:45.103Z,14.77
2022-11-29T02:01:47.663Z,15.00
2022-11-29T02:04:50.543Z,15.80
2022-11-29T02:07:56.259Z,14.18
2022-11-29T02:11:26.210Z,15.65
2022-11-29T02:14:47.458Z,15.50
2022-11-29T02:18:02.694Z,15.32
2022-11-29T02:21:20.493Z,14.00
2022-11-29T02:24:50.565Z,14.50
2022-11-29T02:28:43.379Z,13.70
2022-11-29T02:32:27.904Z,14.30
2022-11-29T02:36:08.558Z,14.65
2022-11-29T02:39:52.976Z,15.40
2022-11-29T02:43:12.020Z,14.45
2022-11-29T02:46:44.303Z,15.75
2022-11-29T02:50:09.000Z,14.02
2022-11-29T02:53:18.651Z,14.45
2022-11-29T02:56:27.220Z,15.17
2022-11-29T02:59:42.748Z,15.13
2022-11-29T03:02:53.866Z,16.08
2022-11-29T03:06:07.948Z,16.25
2022-11-29T03:09:19.177Z,16.33
2022-11-29T03:12:32.435Z,17.33
2022-11-29T03:15:41.732Z,17.55
2022-11-29T03:18:58.053Z,15.15
2022-11-29T03:22:10.783Z,16.38
2022-11-29T03:25:22.932Z,15.00
2022-11-29T03:28:31.834Z,16.13
2022-11-29T03:31:39.718Z,16.13
2022-11-29T03:34:58.302Z,15.68
2022-11-29T03:38:09.464Z,14.50
2022-11-29T03:41:20.926Z,15.18
2022-11-29T03:44:28.279Z,14.97
2022-11-29T03:47:36.682Z,16.88
2022-11-29T03:50:43.331Z,15.35
2022-11-29T03:53:50.663Z,18.23
2022-11-29T03:56:55.398Z,14.80
2022-11-29T04:00:05.701Z,15.97
2022-11-29T04:03:49.242Z,15.85
2022-11-29T04:07:06.896Z,16.77
2022-11-29T04:10:19.766Z,17.67
2022-11-29T04:13:57.797Z,16.60
2022-11-29T04:17:29.508Z,18.73
2022-11-29T04:21:12.718Z,14.50
2022-11-29T04:25:03.549Z,16.65
2022-11-29T04:28:48.704Z,16.02
2022-11-29T04:32:14.699Z,15.85
2022-11-29T04:35:32.732Z,16.87
2022-11-29T04:39:00.715Z,16.75
2022-11-29T04:42:36.744Z,17.38
2022-11-29T04:46:05.407Z,16.02
2022-11-29T04:49:37.313Z,15.75
2022-11-29T04:52:56.606Z,17.10
2022-11-29T04:56:11.475Z,17.25
2022-11-29T04:59:21.558Z,17.95
2022-11-29T05:02:33.145Z,16.17
2022-11-29T05:05:43.333Z,16.92
2022-11-29T05:08:52.609Z,16.77
2022-11-29T05:12:08.091Z,16.73
2022-11-29T05:15:38.366Z,18.23
2022-11-29T05:19:04.755Z,20.38
2022-11-29T05:22:22.536Z,22.55
2022-11-29T05:25:37.170Z,16.57
2022-11-29T05:28:50.281Z,18.17
2022-11-29T05:32:21.133Z,17.88
2022-11-29T05:36:02.116Z,17.50
2022-11-29T05:39:25.935Z,15.10
2022-11-29T05:43:04.040Z,18.17
2022-11-29T05:46:12.817Z,24.52
2022-11-29T05:49:24.089Z,35.97
2022-11-29T05:52:39.493Z,18.25
2022-11-29T05:55:53.061Z,18.83
2022-11-29T05:59:00.005Z,16.33
2022-11-29T06:02:10.000Z,17.13
2022-11-29T06:05:20.445Z,16.02
2022-11-29T06:08:34.199Z,15.98
2022-11-29T06:11:44.947Z,16.88
2022-11-29T06:15:17.324Z,14.97
2022-11-29T06:18:40.564Z,15.68
2022-11-29T06:21:50.644Z,15.65
2022-11-29T06:25:12.130Z,15.88
2022-11-29T06:28:28.488Z,15.38
2022-11-29T06:31:34.378Z,16.10
2022-11-29T06:34:45.402Z,15.38
2022-11-29T06:37:51.147Z,17.27
2022-11-29T06:41:01.567Z,16.23
2022-11-29T06:44:19.157Z,15.45
2022-11-29T06:47:28.527Z,18.90
2022-11-29T06:51:03.141Z,28.80
2022-11-29T06:54:17.300Z,32.00
2022-11-29T06:57:25.854Z,17.50
2022-11-29T07:00:39.394Z,16.67
2022-11-29T07:03:54.372Z,15.43
2022-11-29T07:06:57.341Z,14.45
2022-11-29T07:10:02.933Z,16.40
2022-11-29T07:13:05.945Z,14.90
2022-11-29T07:16:17.393Z,14.13
2022-11-29T07:19:33.208Z,16.07
2022-11-29T07:22:56.282Z,20.20
2022-11-29T07:26:09.841Z,38.58
2022-11-29T07:29:24.602Z,28.48
2022-11-29T07:32:40.162Z,30.20
2022-11-29T07:35:50.339Z,18.73
2022-11-29T07:39:01.693Z,16.15
2022-11-29T07:42:11.949Z,14.90
2022-11-29T07:45:21.430Z,15.35
2022-11-29T07:52:04.609Z,14.10
2022-11-29T07:55:17.096Z,14.32
2022-11-29T07:58:21.190Z,15.25
2022-11-29T08:01:23.855Z,15.93
2022-11-29T08:04:27.855Z,17.05
2022-11-29T08:07:30.804Z,14.83
2022-11-29T08:10:34.605Z,15.55
2022-11-29T08:13:43.949Z,25.92
2022-11-29T08:16:49.319Z,16.02
2022-11-29T08:19:54.347Z,15.32
2022-11-29T08:22:59.171Z,14.47
2022-11-29T08:26:02.520Z,14.65
2022-11-29T08:29:05.210Z,13.07
2022-11-29T08:32:08.998Z,13.80
2022-11-29T08:35:14.647Z,14.98
2022-11-29T08:38:17.231Z,13.33
2022-11-29T08:41:19.659Z,14.13
2022-11-29T08:44:22.342Z,13.57
2022-11-29T08:47:36.754Z,13.93
2022-11-29T08:50:41.045Z,13.38
2022-11-29T08:53:44.649Z,15.23
2022-11-29T08:57:31.048Z,14.32
2022-11-29T09:00:11.192Z,12.90
2022-11-29T09:03:32.105Z,14.15
2022-11-29T09:06:40.194Z,12.23
2022-11-29T09:09:42.887Z,13.53
2022-11-29T09:12:45.788Z,14.40
2022-11-29T09:15:48.490Z,18.80
2022-11-29T09:18:55.940Z,17.27
2022-11-29T09:21:59.959Z,16.05
2022-11-29T09:25:02.431Z,18.03
2022-11-29T09:28:05.775Z,16.65
2022-11-29T09:31:10.362Z,16.63
2022-11-29T09:34:13.602Z,16.35
2022-11-29T09:37:17.438Z,16.92
2022-11-29T09:40:25.916Z,16.97
2022-11-29T09:43:38.934Z,16.33
2022-11-29T09:46:52.242Z,19.08
2022-11-29T09:50:16.767Z,15.57
2022-11-29T09:53:38.151Z,15.88
2022-11-29T09:56:47.329Z,19.70
2022-11-29T09:59:53.049Z,20.27
2022-11-29T10:03:02.149Z,18.45
2022-11-29T10:06:11.651Z,18.55
2022-11-29T10:09:22.509Z,19.27
2022-11-29T10:12:35.088Z,18.00
2022-11-29T10:15:43.205Z,17.00
2022-11-29T10:18:50.467Z,15.73
2022-11-29T10:22:01.928Z,16.27
2022-11-29T10:25:10.659Z,14.73
2022-11-29T10:28:15.798Z,14.60
2022-11-29T10:31:21.960Z,16.92
2022-11-29T10:34:26.622Z,15.13
2022-11-29T10:37:32.731Z,16.27
2022-11-29T10:40:39.805Z,15.85
2022-11-29T10:43:43.184Z,17.93
2022-11-29T10:46:45.647Z,16.90
2022-11-29T10:49:48.501Z,18.95
2022-11-29T10:52:53.629Z,21.20
2022-11-29T10:56:06.033Z,21.05
2022-11-29T10:59:20.244Z,17.70
2022-11-29T11:02:24.290Z,17.33
2022-11-29T11:05:27.240Z,20.13
2022-11-29T11:08:32.609Z,18.15
2022-11-29T11:11:36.948Z,19.58
2022-11-29T11:14:39.557Z,17.37
2022-11-29T11:17:59.617Z,20.20
2022-11-29T11:24:32.142Z,17.52
2022-11-29T11:27:40.331Z,18.52
2022-11-29T11:30:50.899Z,16.97
2022-11-29T11:33:53.659Z,16.15
2022-11-29T11:37:19.036Z,18.83
2022-11-29T11:40:28.937Z,19.52
2022-11-29T11:43:34.042Z,16.10
2022-11-29T11:46:48.302Z,17.80
2022-11-29T11:49:55.950Z,17.45
2022-11-29T11:53:02.269Z,19.42
2022-11-29T11:56:07.789Z,24.17
2022-11-29T11:59:20.006Z,20.20
2022-11-29T12:02:35.940Z,19.77
2022-11-29T12:05:41.449Z,18.95
2022-11-29T12:08:49.400Z,18.00
2022-11-29T12:12:00.527Z,18.98
2022-11-29T12:15:08.563Z,20.27
2022-11-29T12:18:14.269Z,20.27
2022-11-29T12:21:22.757Z,23.90
2022-11-29T12:24:31.400Z,17.65
2022-11-29T12:27:34.121Z,18.15
2022-11-29T12:30:41.992Z,18.80
2022-11-29T12:33:50.882Z,17.73
2022-11-29T12:36:59.740Z,18.45
2022-11-29T12:40:06.719Z,18.33
2022-11-29T12:43:18.644Z,18.27
2022-11-29T12:46:26.334Z,17.88
2022-11-29T12:49:34.549Z,18.40
2022-11-29T12:52:45.410Z,18.33
2022-11-29T12:55:57.263Z,18.00
2022-11-29T12:59:29.576Z,17.77
2022-11-29T13:02:44.442Z,18.05
2022-11-29T13:05:58.372Z,18.13
2022-11-29T13:09:32.870Z,19.17
2022-11-29T13:12:39.897Z,18.38
2022-11-29T13:16:31.247Z,18.38
2022-11-29T13:19:57.592Z,17.70
2022-11-29T13:23:08.687Z,21.43
2022-11-29T13:26:12.866Z,21.88
2022-11-29T13:29:18.211Z,19.42
2022-11-29T13:32:31.668Z,18.05
2022-11-29T13:35:43.088Z,18.20
2022-11-29T13:38:57.140Z,20.77
2022-11-29T13:42:08.600Z,21.45
2022-11-29T13:45:21.462Z,20.00
2022-11-29T13:48:45.876Z,20.00
2022-11-29T13:52:04.551Z,19.75
2022-11-29T13:55:31.733Z,17.37
2022-11-29T13:58:37.273Z,19.00
2022-11-29T14:01:45.810Z,18.13
2022-11-29T14:04:48.556Z,19.60
2022-11-29T14:08:26.220Z,19.20
2022-11-29T14:11:33.577Z,17.63
2022-11-29T14:14:48.373Z,18.77
2022-11-29T14:17:54.533Z,20.92
2022-11-29T14:20:58.246Z,18.63
2022-11-29T14:24:41.080Z,23.65
2022-11-29T14:28:04.529Z,18.40
2022-11-29T14:31:08.074Z,18.27
2022-11-29T14:34:15.905Z,20.30
2022-11-29T14:37:30.805Z,21.63
2022-11-29T14:40:44.410Z,17.40
2022-11-29T14:43:48.783Z,17.83
2022-11-29T14:47:01.004Z,20.50
2022-11-29T14:50:09.337Z,22.05
2022-11-29T14:53:29.687Z,19.90
2022-11-29T14:56:39.172Z,19.75
2022-11-29T14:59:49.368Z,18.77
2022-11-29T15:02:55.298Z,19.17
2022-11-29T15:05:59.780Z,20.90
2022-11-29T15:09:05.940Z,18.45
2022-11-29T15:12:17.070Z,29.17
2022-11-29T15:15:32.824Z,33.90
2022-11-29T15:18:55.086Z,24.52
2022-11-29T15:22:07.403Z,20.13
2022-11-29T15:25:12.872Z,21.35
2022-11-29T15:28:21.953Z,24.70
2022-11-29T15:31:24.582Z,21.83
2022-11-29T15:34:32.004Z,23.08
2022-11-29T15:37:44.463Z,22.73
2022-11-29T15:40:52.768Z,22.02
2022-11-29T15:43:59.326Z,21.27
2022-11-29T15:47:21.672Z,21.50
2022-11-29T15:50:26.137Z,22.00
2022-11-29T15:53:34.178Z,22.20
2022-11-29T15:56:42.469Z,21.48
2022-11-29T15:59:48.905Z,20.95
2022-11-29T16:02:55.998Z,23.77
2022-11-29T16:06:05.825Z,23.83
2022-11-29T16:09:11.950Z,22.25
2022-11-29T16:12:17.564Z,23.20
2022-11-29T16:15:28.925Z,25.23
2022-11-29T16:18:33.660Z,21.83
2022-11-29T16:21:36.271Z,20.83
2022-11-29T16:24:40.255Z,20.58
2022-11-29T16:27:43.317Z,23.77
2022-11-29T16:30:47.806Z,22.25
2022-11-29T16:33:52.541Z,20.40
2022-11-29T16:37:01.901Z,20.65
2022-11-29T16:40:06.003Z,19.75
2022-11-29T16:43:20.579Z,19.88
2022-11-29T16:46:33.925Z,20.70
2022-11-29T16:49:36.819Z,19.13
2022-11-29T16:52:39.294Z,19.00
2022-11-29T16:55:41.798Z,19.80
2022-11-29T16:59:20.491Z,19.38
2022-11-29T17:02:12.232Z,18.58
2022-11-29T17:05:14.961Z,20.37
2022-11-29T17:08:17.652Z,21.05
2022-11-29T17:11:20.189Z,21.35
2022-11-29T17:14:23.163Z,21.67
2022-11-29T17:17:27.082Z,27.48
2022-11-29T17:20:29.547Z,22.80
2022-11-29T17:23:32.629Z,24.98
2022-11-29T17:26:35.183Z,24.25
2022-11-29T17:29:37.619Z,23.80
2022-11-29T17:32:41.675Z,23.27
2022-11-29T17:35:44.602Z,24.47
2022-11-29T17:38:47.794Z,22.83
2022-11-29T17:41:50.588Z,23.23
2022-11-29T17:44:53.086Z,25.50
2022-11-29T17:47:58.907Z,21.52
2022-11-29T17:51:01.999Z,23.23
2022-11-29T17:54:04.844Z,26.63
2022-11-29T17:57:07.543Z,31.42
2022-11-29T18:00:13.366Z,27.23
2022-11-29T18:03:23.087Z,28.08
2022-11-29T18:06:30.505Z,25.43
2022-11-29T18:09:33.285Z,27.52
2022-11-29T18:12:36.263Z,31.83
2022-11-29T18:15:38.816Z,26.35
2022-11-29T18:18:43.390Z,26.38
2022-11-29T18:21:46.634Z,35.77
2022-11-29T18:24:50.672Z,34.10
2022-11-29T18:27:53.307Z,36.85
2022-11-29T18:30:56.544Z,28.98
2022-11-29T18:34:06.223Z,28.08
2022-11-29T18:37:15.277Z,26.17
2022-11-29T18:40:20.855Z,25.30
2022-11-29T18:43:23.557Z,21.40
2022-11-29T18:46:32.140Z,21.70
2022-11-29T18:49:36.424Z,22.90
2022-11-29T18:52:40.822Z,23.37
2022-11-29T18:55:43.651Z,23.88
2022-11-29T18:58:47.787Z,27.02
2022-11-29T19:01:50.926Z,26.50
2022-11-29T19:04:55.088Z,24.42
2022-11-29T19:07:57.837Z,24.40
2022-11-29T19:11:04.149Z,24.55
2022-11-29T19:14:11.583Z,24.52
2022-11-29T19:17:14.314Z,25.48
2022-11-29T19:20:18.532Z,22.85
2022-11-29T19:23:21.808Z,30.10
2022-11-29T19:26:26.683Z,25.30
2022-11-29T19:29:29.196Z,24.63
2022-11-29T19:32:31.801Z,24.23
2022-11-29T19:35:36.006Z,28.90
2022-11-29T19:38:39.687Z,28.77
2022-11-29T19:41:44.889Z,26.17
2022-11-29T19:45:15.294Z,26.05
2022-11-29T19:48:10.421Z,26.38
2022-11-29T19:51:18.931Z,25.15
2022-11-29T19:54:21.912Z,25.77
2022-11-29T19:57:24.395Z,27.27
2022-11-29T20:00:28.215Z,27.75
2022-11-29T20:03:30.906Z,25.90
2022-11-29T20:06:35.067Z,27.05
2022-11-29T20:09:38.332Z,24.90
2022-11-29T20:12:42.067Z,25.75
2022-11-29T20:15:44.985Z,26.55
2022-11-29T20:18:51.222Z,27.35
2022-11-29T20:21:56.252Z,28.65
2022-11-29T20:24:59.011Z,29.13
2022-11-29T20:28:04.072Z,29.83
2022-11-29T20:31:07.848Z,26.33
2022-11-29T20:34:12.220Z,31.17
2022-11-29T20:37:32.886Z,31.27
2022-11-29T20:40:43.197Z,29.30
2022-11-29T20:43:50.436Z,28.45
2022-11-29T20:46:53.202Z,28.27
2022-11-29T20:49:57.177Z,27.05
2022-11-29T20:53:22.195Z,28.15
2022-11-29T20:56:24.929Z,25.97
2022-11-29T20:59:28.440Z,26.38
2022-11-29T21:02:31.159Z,27.35
2022-11-29T21:05:37.317Z,26.83
2022-11-29T21:08:41.513Z,29.35
2022-11-29T21:11:44.570Z,28.73
2022-11-29T21:14:47.798Z,28.73
2022-11-29T21:17:50.973Z,30.95
2022-11-29T21:21:02.961Z,30.98
2022-11-29T21:24:18.005Z,30.15
2022-11-29T21:27:26.798Z,30.13
2022-11-29T21:30:29.905Z,30.98
2022-11-29T21:33:34.104Z,30.80
2022-11-29T21:36:37.327Z,29.85
2022-11-29T21:39:41.809Z,28.83
2022-11-29T21:42:44.214Z,28.63
2022-11-29T21:45:47.900Z,28.45
2022-11-29T21:48:51.921Z,27.25
2022-11-29T21:51:57.488Z,28.88
2022-11-29T21:55:01.419Z,29.75
2022-11-29T21:58:03.838Z,28.90
2022-11-29T22:01:11.761Z,30.05
2022-11-29T22:04:14.349Z,28.10
2022-11-29T22:07:16.875Z,28.33
2022-11-29T22:10:20.784Z,29.40
2022-11-29T22:13:23.304Z,27.90
2022-11-29T22:16:26.099Z,29.58
2022-11-29T22:19:30.660Z,28.70
2022-11-29T22:22:33.309Z,30.05
2022-11-29T22:25:37.075Z,28.45
2022-11-29T22:28:39.511Z,26.93
2022-11-29T22:31:42.480Z,25.85
2022-11-29T22:34:45.172Z,25.83
2022-11-29T22:37:48.030Z,27.15
2022-11-29T22:40:52.475Z,26.25
2022-11-29T22:43:55.003Z,26.13
2022-11-29T22:46:57.493Z,26.42
2022-11-29T22:50:01.041Z,25.67
2022-11-29T22:53:04.511Z,25.25
2022-11-29T22:56:10.765Z,25.35
2022-11-29T22:59:14.001Z,24.30
2022-11-29T23:02:16.423Z,24.27
2022-11-29T23:05:18.863Z,24.33
2022-11-29T23:08:21.320Z,24.80
2022-11-29T23:11:27.286Z,24.33
2022-11-29T23:14:29.720Z,23.93
2022-11-29T23:17:32.154Z,23.60
2022-11-29T23:20:34.763Z,22.00
2022-11-29T23:23:38.352Z,23.75
2022-11-29T23:26:44.012Z,21.85
2022-11-29T23:29:46.420Z,21.97
2022-11-29T23:32:48.840Z,22.27
2022-11-29T23:35:51.578Z,20.85
2022-11-29T23:38:54.146Z,21.95
2022-11-29T23:41:57.881Z,20.27
2022-11-29T23:45:00.348Z,19.47
2022-11-29T23:48:02.891Z,20.52
2022-11-29T23:51:05.347Z,19.90
2022-11-29T23:54:07.992Z,19.38
2022-11-29T23:57:11.774Z,19.92
